Middlefield, Massachusetts
Current Conditions -  °F | °C
As of 5:54 PM on Thursday 18 Dec 2014 (Local Time) from KPSF Reporting Station
Overcast Overcast  
Wind Chill: 21°   Ceiling: 1700
Heat Index: 31°   Visibility: 10mi
Dew Point: 25°   Wind: 14mph
Humidity: 79%   Direction: 300°WNW
Pressure: 29.88"   Gusts: 18mph
Location:  42.35°N, 73.02°W
Report Text: KPSF 182254Z AUTO 30012G16KT 10SM OVC017 M01/M04 A2988 RMK AO2 SLP128 T10061039
Loading
Personal Weather Stations






























Interactive Weather Map New forecast layout! Learn more

10-Day Weather Forecast

Advertisements
Track Severe Weather on mobile